Time;durP1;ratioP1;P1;durP2;ratioP2;P2;SDS_P1;SDS_P2;PMS_P1;PMS_P2;Temp;Humidity;BMP_temperature;BMP_pressure;BME280_temperature;BME280_humidity;BME280_pressure;Samples;Min_cycle;Max_cycle;Signal;HPM_P1;HPM_P2
2023/10/08 00:02:21;;;;;;;6.03;2.85;;;14.80;85.20;;;;;;6247496;28;20065;-79
2023/10/08 00:05:23;;;;;;;3.80;2.38;;;14.80;85.00;;;;;;6238699;28;20050;-79
2023/10/08 00:08:25;;;;;;;4.68;2.40;;;14.80;84.90;;;;;;6246183;28;20067;-77
2023/10/08 00:11:29;;;;;;;4.85;2.80;;;14.90;84.70;;;;;;6246824;28;20045;-77
2023/10/08 00:14:32;;;;;;;5.53;2.90;;;15.00;84.60;;;;;;6246649;28;20057;-78
2023/10/08 00:17:34;;;;;;;5.00;2.88;;;15.00;84.30;;;;;;6246605;28;20064;-78
2023/10/08 00:20:45;;;;;;;5.25;2.63;;;15.10;84.20;;;;;;6246711;28;20045;-79
2023/10/08 00:23:52;;;;;;;5.05;2.45;;;15.10;84.10;;;;;;6246433;28;20545;-77
2023/10/08 00:26:56;;;;;;;7.75;3.25;;;15.10;84.00;;;;;;6246113;28;20616;-77
2023/10/08 00:29:59;;;;;;;6.28;2.65;;;15.10;83.80;;;;;;6247138;28;20046;-77
2023/10/08 00:33:03;;;;;;;5.55;3.22;;;15.10;83.50;;;;;;6246085;28;20056;-77
2023/10/08 00:36:17;;;;;;;5.47;2.75;;;15.10;83.20;;;;;;6246030;28;20180;-77
2023/10/08 00:39:22;;;;;;;3.55;2.20;;;15.10;82.90;;;;;;6246359;28;20081;-78
2023/10/08 00:42:28;;;;;;;4.13;2.50;;;15.20;82.60;;;;;;6239028;28;20049;-77
2023/10/08 00:45:30;;;;;;;8.23;2.38;;;15.10;82.30;;;;;;6245573;28;20533;-77
2023/10/08 00:48:35;;;;;;;5.35;3.10;;;15.20;82.10;;;;;;6246181;28;20049;-77
2023/10/08 00:51:41;;;;;;;5.13;3.13;;;15.20;81.80;;;;;;6245700;28;20049;-78
2023/10/08 00:54:53;;;;;;;4.10;2.70;;;15.10;81.50;;;;;;6245887;28;20053;-79
2023/10/08 00:58:07;;;;;;;3.90;2.47;;;15.20;81.30;;;;;;6246250;28;20116;-78
2023/10/08 01:01:11;;;;;;;4.55;3.03;;;15.20;81.10;;;;;;6245748;28;20489;-78
2023/10/08 01:04:17;;;;;;;8.88;2.38;;;15.20;80.90;;;;;;6245447;28;20441;-78
2023/10/08 01:07:19;;;;;;;5.07;2.40;;;15.20;80.80;;;;;;6245083;28;20176;-78
2023/10/08 01:10:21;;;;;;;3.95;2.28;;;15.20;80.50;;;;;;6245991;28;20064;-79
2023/10/08 01:13:26;;;;;;;3.53;1.92;;;15.20;80.30;;;;;;6236990;28;20054;-77
2023/10/08 01:16:29;;;;;;;6.35;2.47;;;15.30;80.10;;;;;;6245258;28;20048;-79
2023/10/08 01:19:31;;;;;;;3.67;2.22;;;15.30;79.90;;;;;;6244952;28;20045;-79
2023/10/08 01:22:34;;;;;;;4.40;2.25;;;15.30;79.70;;;;;;6245846;28;20081;-81
2023/10/08 01:25:37;;;;;;;8.25;2.95;;;15.30;79.40;;;;;;6244773;28;20049;-78
2023/10/08 01:28:40;;;;;;;5.40;2.10;;;15.30;79.40;;;;;;6244762;28;20044;-79
2023/10/08 01:31:42;;;;;;;5.63;2.72;;;15.20;79.30;;;;;;6245214;28;20041;-79
2023/10/08 01:34:46;;;;;;;8.90;2.40;;;15.10;79.50;;;;;;6245499;28;20053;-80
2023/10/08 01:37:50;;;;;;;3.30;2.40;;;15.00;79.80;;;;;;6244746;28;20200;-83
2023/10/08 01:40:52;;;;;;;4.68;2.28;;;14.90;80.20;;;;;;6245015;28;20064;-80
2023/10/08 01:43:54;;;;;;;3.75;2.20;;;14.80;80.50;;;;;;6244602;28;20124;-80
2023/10/08 01:46:57;;;;;;;4.85;2.45;;;14.70;80.80;;;;;;6244897;28;20049;-78
2023/10/08 01:50:05;;;;;;;5.68;2.65;;;14.60;81.20;;;;;;6245386;28;20184;-78
2023/10/08 01:53:10;;;;;;;3.30;2.10;;;14.50;81.60;;;;;;6244180;28;20045;-78
2023/10/08 01:56:11;;;;;;;3.63;2.38;;;14.40;81.80;;;;;;6244403;28;20644;-78
2023/10/08 01:59:15;;;;;;;7.55;2.92;;;14.40;82.00;;;;;;6244841;28;20065;-78
2023/10/08 02:02:17;;;;;;;6.65;4.15;;;14.30;82.30;;;;;;6245017;28;20157;-78
2023/10/08 02:05:19;;;;;;;6.03;2.05;;;14.20;82.50;;;;;;6244214;28;20056;-79
2023/10/08 02:08:22;;;;;;;6.32;2.28;;;14.20;82.70;;;;;;6244273;28;20417;-78
2023/10/08 02:11:24;;;;;;;3.13;2.17;;;14.10;82.80;;;;;;6244784;28;20053;-78
2023/10/08 02:14:30;;;;;;;5.03;2.75;;;14.10;83.00;;;;;;6236788;28;20063;-78
2023/10/08 02:17:32;;;;;;;5.07;2.83;;;14.00;83.10;;;;;;6244048;28;20041;-78
2023/10/08 02:20:34;;;;;;;6.80;2.35;;;14.00;83.20;;;;;;6244431;28;20508;-77
2023/10/08 02:23:38;;;;;;;7.30;3.40;;;14.00;83.20;;;;;;6244931;28;20046;-79
2023/10/08 02:26:39;;;;;;;4.72;2.53;;;14.10;83.20;;;;;;6244903;28;20411;-78
2023/10/08 02:29:41;;;;;;;6.65;2.70;;;14.10;83.10;;;;;;6245473;28;20052;-78
2023/10/08 02:32:43;;;;;;;7.43;2.75;;;14.20;82.90;;;;;;6249233;28;20053;-78
2023/10/08 02:35:46;;;;;;;9.23;3.55;;;14.20;82.80;;;;;;6248299;28;20046;-80
2023/10/08 02:38:49;;;;;;;4.88;3.22;;;14.20;82.70;;;;;;6249408;28;20041;-78
2023/10/08 02:41:51;;;;;;;3.53;2.65;;;14.20;82.60;;;;;;6248632;28;20038;-79
2023/10/08 02:44:53;;;;;;;6.13;2.08;;;14.20;82.50;;;;;;6248710;28;20052;-78
2023/10/08 02:47:55;;;;;;;4.80;2.65;;;14.20;82.50;;;;;;6248920;28;20056;-78
2023/10/08 02:51:06;;;;;;;5.22;3.10;;;14.20;82.50;;;;;;6248731;28;20057;-78
2023/10/08 02:54:16;;;;;;;4.85;2.10;;;14.10;82.40;;;;;;6248267;28;20409;-78
2023/10/08 02:57:19;;;;;;;4.15;2.60;;;14.10;82.50;;;;;;6248333;28;20061;-78
2023/10/08 03:00:29;;;;;;;4.15;2.33;;;14.00;82.50;;;;;;6248283;28;20188;-78
2023/10/08 03:03:32;;;;;;;6.43;2.88;;;14.00;82.60;;;;;;6248193;28;20049;-79
2023/10/08 03:06:34;;;;;;;6.63;3.30;;;14.00;82.70;;;;;;6248449;28;20056;-78
2023/10/08 03:09:41;;;;;;;4.85;2.33;;;14.00;82.70;;;;;;6247770;28;20511;-79
2023/10/08 03:12:44;;;;;;;5.63;2.40;;;14.00;82.60;;;;;;6247795;28;20053;-79
2023/10/08 03:16:07;;;;;;;7.53;2.25;;;14.00;82.60;;;;;;6247439;28;20529;-79
2023/10/08 03:19:09;;;;;;;5.05;2.85;;;13.90;82.60;;;;;;6248009;28;20141;-78
2023/10/08 03:22:12;;;;;;;7.45;3.50;;;13.90;82.70;;;;;;6248738;28;20072;-79
2023/10/08 03:25:19;;;;;;;5.82;2.35;;;13.80;82.70;;;;;;6247573;28;20505;-79
2023/10/08 03:28:24;;;;;;;9.32;2.70;;;13.80;82.70;;;;;;6248197;28;20049;-79
2023/10/08 03:31:44;;;;;;;4.93;3.45;;;13.80;82.80;;;;;;6247686;28;20045;-78
2023/10/08 03:34:47;;;;;;;9.40;2.55;;;13.80;82.90;;;;;;6241767;28;20053;-78
2023/10/08 03:37:50;;;;;;;8.10;2.35;;;13.70;83.00;;;;;;6247280;28;20049;-78
2023/10/08 03:40:57;;;;;;;5.28;2.65;;;13.70;83.10;;;;;;6247368;28;20041;-78
2023/10/08 03:44:05;;;;;;;5.85;2.83;;;13.60;83.30;;;;;;6247187;28;20049;-80
2023/10/08 03:47:10;;;;;;;4.35;2.65;;;13.50;83.50;;;;;;6246891;28;20136;-79
2023/10/08 03:50:17;;;;;;;7.03;2.40;;;13.40;83.80;;;;;;6247728;28;20072;-79
2023/10/08 03:53:21;;;;;;;5.20;1.95;;;13.40;84.20;;;;;;6247299;28;20045;-77
2023/10/08 03:56:24;;;;;;;6.03;3.80;;;13.20;84.60;;;;;;6246922;28;20055;-79
2023/10/08 03:59:33;;;;;;;4.72;2.22;;;13.10;85.00;;;;;;6247165;28;20056;-78
2023/10/08 04:02:40;;;;;;;6.25;2.63;;;13.10;85.40;;;;;;6239251;28;20442;-80
2023/10/08 04:05:59;;;;;;;5.38;2.30;;;13.00;85.70;;;;;;6246439;28;20056;-78
2023/10/08 04:09:16;;;;;;;6.97;2.90;;;12.90;85.90;;;;;;6246691;28;20168;-78
2023/10/08 04:12:19;;;;;;;7.75;2.83;;;12.90;86.10;;;;;;6246675;28;20051;-78
2023/10/08 04:15:21;;;;;;;4.55;2.17;;;12.80;86.40;;;;;;6246756;28;20045;-77
2023/10/08 04:18:22;;;;;;;7.05;3.25;;;12.70;86.60;;;;;;6246681;28;20048;-78
2023/10/08 04:21:27;;;;;;;7.05;2.60;;;12.70;86.80;;;;;;6246678;28;20056;-78
2023/10/08 04:24:34;;;;;;;3.45;2.30;;;12.70;87.00;;;;;;6246106;28;20132;-78
2023/10/08 04:27:37;;;;;;;6.75;2.40;;;12.60;87.20;;;;;;6238893;28;20050;-80
2023/10/08 04:30:41;;;;;;;10.45;3.30;;;12.60;87.30;;;;;;6246791;28;20049;-78
2023/10/08 04:33:44;;;;;;;7.10;3.13;;;12.60;87.40;;;;;;6245929;28;20096;-79
2023/10/08 04:36:46;;;;;;;4.65;2.42;;;12.60;87.60;;;;;;6245708;28;20056;-79
2023/10/08 04:39:54;;;;;;;12.98;3.90;;;12.50;87.60;;;;;;6246253;28;20061;-80
2023/10/08 04:43:01;;;;;;;5.35;2.30;;;12.50;87.80;;;;;;6246354;28;20128;-78
2023/10/08 04:46:05;;;;;;;7.57;3.47;;;12.50;88.00;;;;;;6246252;28;20390;-77
2023/10/08 04:49:26;;;;;;;6.00;3.30;;;12.40;88.10;;;;;;6245820;28;20131;-78
2023/10/08 04:52:27;;;;;;;6.38;3.22;;;12.40;88.30;;;;;;6245556;28;20045;-78
2023/10/08 04:55:29;;;;;;;6.57;2.58;;;12.40;88.50;;;;;;6253570;23;20105;-81
2023/10/08 04:58:36;;;;;;;4.30;2.50;;;12.40;88.80;;;;;;6227518;28;20152;-81
2023/10/08 05:01:47;;;;;;;5.13;3.00;;;12.30;89.60;;;;;;6227688;28;20069;-79
2023/10/08 05:05:21;;;;;;;3.72;2.55;;;12.30;89.20;;;;;;6228375;28;20061;-81
2023/10/08 05:08:33;;;;;;;4.18;2.28;;;12.20;89.40;;;;;;6227859;28;20046;-81
2023/10/08 05:11:46;;;;;;;7.18;2.72;;;12.20;89.60;;;;;;6228525;28;20105;-80
2023/10/08 05:15:21;;;;;;;6.63;2.95;;;12.20;89.80;;;;;;6228160;28;20046;-80
2023/10/08 05:18:37;;;;;;;5.90;2.47;;;12.20;90.00;;;;;;6224630;28;20053;-81
2023/10/08 05:21:51;;;;;;;6.18;2.65;;;12.10;90.00;;;;;;6228236;28;20361;-81
2023/10/08 05:25:07;;;;;;;7.07;2.83;;;12.10;90.00;;;;;;6227663;28;20041;-81
2023/10/08 05:28:09;;;;;;;5.97;2.70;;;12.10;90.10;;;;;;6229079;28;20140;-82
2023/10/08 05:31:36;;;;;;;5.43;3.35;;;12.10;90.20;;;;;;6228796;28;20062;-81
2023/10/08 05:34:50;;;;;;;6.22;2.65;;;12.10;90.30;;;;;;6220423;28;20093;-82
2023/10/08 05:38:02;;;;;;;6.50;2.38;;;12.00;90.30;;;;;;6228196;28;20050;-82
2023/10/08 05:44:38;;;;;;;5.97;2.78;;;12.00;90.40;;;;;;6228711;28;20698;-81
2023/10/08 05:48:06;;;;;;;3.35;2.63;;;12.00;90.50;;;;;;6228631;28;20069;-80
2023/10/08 05:51:13;;;;;;;4.70;2.83;;;12.10;90.60;;;;;;6227519;28;20042;-81
2023/10/08 05:54:35;;;;;;;7.75;2.45;;;12.10;90.70;;;;;;6227831;28;20056;-82
2023/10/08 05:57:40;;;;;;;5.70;2.95;;;12.10;90.70;;;;;;6227129;28;20049;-81
2023/10/08 06:04:20;;;;;;;5.50;3.20;;;12.20;90.80;;;;;;6225900;28;20041;-82
2023/10/08 06:07:33;;;;;;;5.40;3.30;;;12.30;90.80;;;;;;6231118;28;20061;-81
2023/10/08 06:10:43;;;;;;;3.72;2.50;;;12.40;90.80;;;;;;6231475;28;20044;-81
2023/10/08 06:13:50;;;;;;;7.15;3.20;;;12.50;90.80;;;;;;6232215;28;20057;-83
2023/10/08 06:17:13;;;;;;;8.07;3.53;;;12.60;90.80;;;;;;6231021;28;20522;-82
2023/10/08 06:20:17;;;;;;;4.38;2.40;;;12.70;90.90;;;;;;6230989;28;20157;-80
2023/10/08 06:23:19;;;;;;;7.63;3.78;;;12.80;90.90;;;;;;6230721;28;20068;-82
2023/10/08 06:26:24;;;;;;;6.15;3.25;;;12.90;90.80;;;;;;6186908;28;20050;-83
2023/10/08 06:29:29;;;;;;;6.20;2.60;;;13.00;90.90;;;;;;6226278;28;20033;-82
2023/10/08 06:32:31;;;;;;;5.68;3.08;;;13.10;90.80;;;;;;6238174;28;20042;-83
2023/10/08 06:35:34;;;;;;;5.90;2.85;;;13.20;90.80;;;;;;6229089;28;20042;-80
2023/10/08 06:38:38;;;;;;;6.85;3.03;;;13.30;90.90;;;;;;6231473;28;20042;-82
2023/10/08 06:41:42;;;;;;;10.45;2.85;;;13.40;90.90;;;;;;6230918;28;20510;-83
2023/10/08 06:44:48;;;;;;;5.10;2.63;;;13.40;90.90;;;;;;6231618;28;20085;-82
2023/10/08 06:47:49;;;;;;;14.40;2.90;;;13.40;90.80;;;;;;6230087;28;20052;-83
2023/10/08 06:50:57;;;;;;;4.57;1.85;;;13.50;90.70;;;;;;6228721;28;20050;-82
2023/10/08 06:54:01;;;;;;;6.75;2.50;;;13.60;90.70;;;;;;6229295;28;20650;-83
2023/10/08 06:57:03;;;;;;;6.65;2.33;;;13.60;90.70;;;;;;6232934;28;20105;-83
2023/10/08 07:00:12;;;;;;;5.78;3.05;;;13.70;90.80;;;;;;6239184;28;20125;-83
2023/10/08 07:03:15;;;;;;;9.13;3.10;;;14.00;90.80;;;;;;6252617;28;20097;-84
2023/10/08 07:06:25;;;;;;;5.78;2.42;;;14.20;90.50;;;;;;6231458;28;20681;-82
2023/10/08 07:09:30;;;;;;;3.97;2.72;;;14.30;90.40;;;;;;6230535;28;20406;-82
2023/10/08 07:12:35;;;;;;;5.00;3.15;;;14.40;90.40;;;;;;6229508;28;20046;-84
2023/10/08 07:15:40;;;;;;;6.47;4.05;;;14.60;90.30;;;;;;6228856;28;20050;-83
2023/10/08 07:18:45;;;;;;;8.00;3.75;;;14.80;90.20;;;;;;6230927;28;20073;-81
2023/10/08 07:21:49;;;;;;;6.63;3.75;;;15.00;90.10;;;;;;6231222;28;20049;-86
2023/10/08 07:24:51;;;;;;;4.82;3.25;;;15.10;90.00;;;;;;6228728;28;20053;-82
2023/10/08 07:27:53;;;;;;;4.13;2.45;;;15.40;89.80;;;;;;6229102;28;20054;-82
2023/10/08 07:30:55;;;;;;;4.60;2.92;;;15.70;89.00;;;;;;6228434;28;20046;-84
2023/10/08 07:33:57;;;;;;;6.30;3.45;;;16.00;88.50;;;;;;6229525;28;20126;-81
2023/10/08 07:37:00;;;;;;;6.70;3.72;;;16.30;87.90;;;;;;6230714;28;20482;-83
2023/10/08 07:40:08;;;;;;;8.05;2.97;;;16.50;87.20;;;;;;6228152;28;20042;-86
2023/10/08 07:43:10;;;;;;;4.47;2.70;;;16.70;86.50;;;;;;6228440;28;20486;-83
2023/10/08 07:46:13;;;;;;;4.35;3.75;;;17.00;86.00;;;;;;6228773;28;20367;-83
2023/10/08 07:49:15;;;;;;;6.53;3.92;;;17.20;85.30;;;;;;6227698;28;20534;-82
2023/10/08 07:52:18;;;;;;;3.95;2.90;;;17.40;84.80;;;;;;6229505;28;20503;-82
2023/10/08 07:55:22;;;;;;;5.70;3.00;;;17.70;83.80;;;;;;6225120;28;20050;-82
2023/10/08 07:58:23;;;;;;;4.45;2.88;;;17.90;83.10;;;;;;6227126;28;20045;-83
2023/10/08 08:01:25;;;;;;;5.68;2.90;;;18.00;82.30;;;;;;6225152;28;20526;-81
2023/10/08 08:04:33;;;;;;;5.45;3.28;;;18.10;82.20;;;;;;6225670;28;20046;-82
2023/10/08 08:07:37;;;;;;;5.18;2.85;;;18.50;81.40;;;;;;6225437;28;20042;-83
2023/10/08 08:10:39;;;;;;;4.75;2.90;;;18.80;81.20;;;;;;6226951;28;20069;-85
2023/10/08 08:13:42;;;;;;;5.07;3.55;;;19.30;79.60;;;;;;6226587;28;20132;-83
2023/10/08 08:16:47;;;;;;;5.28;2.20;;;19.80;78.40;;;;;;6227919;28;20081;-84
2023/10/08 08:19:51;;;;;;;4.80;2.17;;;20.40;77.20;;;;;;6226494;28;20050;-83
2023/10/08 08:22:56;;;;;;;5.93;2.13;;;20.60;74.80;;;;;;6227105;28;20554;-84
2023/10/08 08:26:11;;;;;;;4.85;2.80;;;20.70;74.30;;;;;;6226179;28;20053;-81
2023/10/08 08:29:15;;;;;;;4.28;2.17;;;20.60;74.00;;;;;;6224691;28;20057;-83
2023/10/08 08:32:21;;;;;;;7.05;2.55;;;20.80;73.30;;;;;;6226300;28;20072;-86
2023/10/08 08:35:23;;;;;;;5.68;3.08;;;21.20;72.80;;;;;;6226001;28;20128;-82
2023/10/08 08:38:29;;;;;;;4.88;2.47;;;21.70;71.60;;;;;;6228420;28;20080;-84
2023/10/08 08:41:33;;;;;;;4.88;2.28;;;21.80;70.50;;;;;;6226938;28;20502;-84
2023/10/08 08:44:43;;;;;;;4.60;2.88;;;21.90;69.70;;;;;;6220981;28;20065;-84
2023/10/08 08:47:46;;;;;;;6.20;2.55;;;21.60;69.20;;;;;;6225751;28;20045;-84
2023/10/08 08:50:49;;;;;;;4.93;2.60;;;21.30;70.10;;;;;;6217806;28;20411;-82
2023/10/08 08:53:53;;;;;;;5.88;2.30;;;21.30;70.40;;;;;;6226119;28;20049;-84
2023/10/08 08:56:56;;;;;;;2.20;1.83;;;21.70;70.00;;;;;;6225868;28;20041;-80
2023/10/08 08:59:59;;;;;;;3.50;2.10;;;22.20;68.60;;;;;;6231306;28;20038;-84
2023/10/08 09:03:04;;;;;;;5.38;2.35;;;22.20;67.30;;;;;;6240314;28;20180;-87
2023/10/08 09:06:06;;;;;;;7.72;2.55;;;22.10;67.20;;;;;;6229986;28;20065;-83
2023/10/08 09:09:21;;;;;;;4.70;1.92;;;22.20;66.80;;;;;;6227662;28;20071;-84
2023/10/08 09:12:23;;;;;;;7.30;3.20;;;22.10;66.00;;;;;;6225000;28;20129;-83
2023/10/08 09:15:25;;;;;;;4.45;2.03;;;22.30;65.70;;;;;;6226361;28;20517;-82
2023/10/08 09:18:28;;;;;;;5.57;2.25;;;22.60;65.30;;;;;;6227830;28;20517;-83
2023/10/08 09:21:30;;;;;;;3.28;1.67;;;23.20;64.30;;;;;;6226413;28;20491;-83
2023/10/08 09:24:36;;;;;;;4.30;2.30;;;23.40;63.50;;;;;;6227953;28;20073;-84
2023/10/08 09:27:38;;;;;;;4.40;2.28;;;23.40;62.80;;;;;;6226402;28;20049;-79
2023/10/08 09:30:40;;;;;;;2.72;1.90;;;23.30;62.80;;;;;;6224715;28;20064;-81
2023/10/08 09:33:42;;;;;;;3.58;2.13;;;23.20;62.60;;;;;;6225628;28;20045;-82
2023/10/08 09:36:44;;;;;;;4.03;2.33;;;23.20;62.90;;;;;;6225405;28;20123;-82
2023/10/08 09:39:51;;;;;;;3.85;1.88;;;23.40;62.80;;;;;;6230241;28;20038;-82
2023/10/08 09:42:54;;;;;;;4.80;2.38;;;23.80;62.30;;;;;;6231349;28;20103;-80
2023/10/08 09:46:01;;;;;;;4.57;3.28;;;24.20;61.30;;;;;;6231939;28;20050;-81
2023/10/08 09:49:07;;;;;;;5.03;2.00;;;24.30;60.80;;;;;;6232168;28;20046;-81
2023/10/08 09:52:10;;;;;;;6.85;2.80;;;24.30;60.10;;;;;;6230511;28;20288;-82
2023/10/08 09:55:14;;;;;;;5.70;1.85;;;24.20;59.90;;;;;;6229991;28;20096;-80
2023/10/08 09:58:17;;;;;;;5.03;2.17;;;24.30;60.10;;;;;;6231295;28;20129;-82
2023/10/08 10:01:22;;;;;;;5.30;2.20;;;24.70;59.30;;;;;;6232128;28;20056;-82
2023/10/08 10:04:25;;;;;;;7.28;2.53;;;25.00;58.90;;;;;;6230530;28;20570;-80
2023/10/08 10:07:28;;;;;;;7.68;2.95;;;25.40;58.50;;;;;;6230481;28;20056;-83
2023/10/08 10:10:33;;;;;;;11.35;7.70;;;25.60;58.00;;;;;;6231413;28;20057;-83
2023/10/08 10:13:39;;;;;;;10.25;8.02;;;25.90;57.80;;;;;;6230147;28;20458;-81
2023/10/08 10:16:45;;;;;;;4.30;2.58;;;26.10;57.10;;;;;;6229737;28;20054;-81
2023/10/08 10:19:51;;;;;;;7.60;5.82;;;26.30;57.20;;;;;;6229547;28;20057;-82
2023/10/08 10:22:53;;;;;;;5.80;3.35;;;26.50;56.60;;;;;;6223618;28;20289;-80
2023/10/08 10:25:58;;;;;;;9.48;2.90;;;26.80;56.60;;;;;;6232541;28;20058;-80
2023/10/08 10:29:19;;;;;;;9.50;5.68;;;27.20;55.90;;;;;;6236477;28;20064;-81
2023/10/08 10:32:22;;;;;;;5.03;3.22;;;27.50;55.80;;;;;;6230096;28;20125;-81
2023/10/08 10:35:24;;;;;;;4.82;2.97;;;27.60;55.00;;;;;;6230221;28;20090;-81
2023/10/08 10:38:26;;;;;;;4.68;1.92;;;27.40;55.20;;;;;;6234124;28;20060;-82
2023/10/08 10:41:29;;;;;;;5.38;2.03;;;27.20;54.80;;;;;;6247815;28;20041;-81
2023/10/08 10:44:31;;;;;;;7.95;2.47;;;27.10;55.50;;;;;;6244835;28;20068;-80
2023/10/08 10:47:43;;;;;;;7.05;2.50;;;27.10;55.20;;;;;;6245017;28;20051;-81
2023/10/08 10:50:48;;;;;;;8.05;3.38;;;27.20;55.40;;;;;;6243422;28;20046;-81
2023/10/08 10:53:56;;;;;;;4.88;1.98;;;27.40;55.10;;;;;;6266381;23;20459;-80
2023/10/08 10:57:05;;;;;;;4.63;2.60;;;27.50;55.00;;;;;;6264470;28;20053;-80
2023/10/08 11:00:47;;;;;;;;;;;27.80;54.60;;;;;;6267864;28;20052;-80
2023/10/08 11:03:34;;;;;;;6.55;2.40;;;27.80;55.00;;;;;;6269165;28;19921;-79
2023/10/08 11:06:37;;;;;;;4.72;3.47;;;27.80;54.70;;;;;;6254771;28;20103;-80
2023/10/08 11:09:44;;;;;;;3.67;2.15;;;27.70;54.50;;;;;;6250840;28;20037;-80
2023/10/08 11:12:53;;;;;;;6.50;2.33;;;27.70;54.20;;;;;;6250657;28;20057;-80
2023/10/08 11:15:57;;;;;;;3.95;2.28;;;27.80;54.20;;;;;;6244119;28;20429;-80
2023/10/08 11:19:06;;;;;;;8.55;3.72;;;28.00;53.90;;;;;;6222391;28;20590;-79
2023/10/08 11:22:15;;;;;;;5.80;2.33;;;28.10;53.50;;;;;;6233054;28;20081;-80
2023/10/08 11:25:30;;;;;;;6.95;2.70;;;28.00;53.30;;;;;;6236775;28;20050;-80
2023/10/08 11:28:35;;;;;;;8.32;3.13;;;28.20;53.40;;;;;;6234572;28;20133;-80
2023/10/08 11:31:39;;;;;;;2.80;2.05;;;28.20;53.20;;;;;;6228984;28;20108;-80
2023/10/08 11:34:40;;;;;;;3.42;2.50;;;28.20;52.80;;;;;;6235568;28;20057;-81
2023/10/08 11:37:48;;;;;;;4.32;2.03;;;28.10;52.80;;;;;;6234073;28;20046;-83
2023/10/08 11:40:51;;;;;;;5.00;3.38;;;27.90;52.40;;;;;;6234396;28;20040;-83
2023/10/08 11:43:56;;;;;;;6.32;2.00;;;27.70;52.80;;;;;;6233928;28;20065;-81
2023/10/08 11:47:04;;;;;;;4.60;2.38;;;27.60;52.50;;;;;;6233149;28;20046;-81
2023/10/08 11:50:10;;;;;;;6.13;1.92;;;27.50;53.20;;;;;;6231267;28;20045;-80
2023/10/08 11:53:12;;;;;;;4.60;2.30;;;27.70;53.40;;;;;;6229546;28;20038;-79
2023/10/08 11:56:14;;;;;;;5.88;2.35;;;27.90;53.10;;;;;;6228770;28;20050;-80
2023/10/08 11:59:18;;;;;;;4.38;2.22;;;28.20;52.80;;;;;;6228886;28;20050;-79
2023/10/08 12:02:20;;;;;;;4.38;2.25;;;28.30;52.30;;;;;;6229412;28;20045;-79
2023/10/08 12:05:23;;;;;;;7.07;1.80;;;28.50;52.10;;;;;;6228461;28;20052;-81
2023/10/08 12:08:27;;;;;;;5.55;2.35;;;28.80;51.40;;;;;;6231711;28;20418;-80
2023/10/08 12:11:31;;;;;;;4.30;1.88;;;28.90;51.60;;;;;;6230952;28;20050;-81
2023/10/08 12:14:34;;;;;;;10.68;2.72;;;29.00;51.30;;;;;;6231826;28;20060;-82
2023/10/08 12:17:39;;;;;;;6.07;2.58;;;29.00;50.70;;;;;;6231399;28;20060;-79
2023/10/08 12:20:43;;;;;;;4.80;1.80;;;28.90;50.80;;;;;;6227553;28;20714;-80
2023/10/08 12:23:46;;;;;;;4.03;2.17;;;28.90;51.00;;;;;;6228199;28;20569;-79
2023/10/08 12:26:49;;;;;;;7.63;2.35;;;28.80;50.90;;;;;;6230525;28;20072;-80
2023/10/08 12:29:52;;;;;;;4.55;2.55;;;28.80;50.80;;;;;;6231205;28;20053;-79
2023/10/08 12:32:54;;;;;;;4.82;2.33;;;28.80;50.80;;;;;;6228603;28;20061;-80
2023/10/08 12:35:57;;;;;;;10.25;3.15;;;28.60;50.70;;;;;;6228142;28;20057;-79
2023/10/08 12:38:58;;;;;;;3.80;2.20;;;28.40;51.00;;;;;;6229525;28;20049;-80
2023/10/08 12:42:04;;;;;;;5.75;2.47;;;28.60;51.00;;;;;;6228877;28;20525;-80
2023/10/08 12:45:12;;;;;;;4.68;2.50;;;28.70;50.70;;;;;;6227649;28;20042;-80
2023/10/08 12:48:15;;;;;;;11.77;4.00;;;28.70;50.10;;;;;;6227256;28;20068;-80
2023/10/08 12:51:17;;;;;;;7.25;3.35;;;28.70;50.40;;;;;;6228491;28;20061;-81
2023/10/08 12:54:23;;;;;;;8.43;4.53;;;28.70;50.40;;;;;;6231548;28;20057;-79
2023/10/08 12:57:31;;;;;;;7.17;2.50;;;28.70;50.40;;;;;;6232923;28;20042;-80
2023/10/08 13:00:37;;;;;;;5.82;2.25;;;28.80;50.40;;;;;;6231941;28;20050;-81
2023/10/08 13:03:42;;;;;;;4.85;3.17;;;28.80;50.20;;;;;;6229227;28;20042;-79
2023/10/08 13:06:45;;;;;;;9.00;3.03;;;29.00;50.30;;;;;;6229736;28;20179;-80
2023/10/08 13:09:46;;;;;;;6.60;2.03;;;29.30;50.30;;;;;;6230561;28;20042;-80
2023/10/08 13:12:48;;;;;;;4.22;1.70;;;29.50;50.00;;;;;;6229795;28;20052;-79
2023/10/08 13:15:55;;;;;;;4.47;1.92;;;29.70;49.70;;;;;;6229731;28;20049;-79
2023/10/08 13:18:58;;;;;;;3.03;1.90;;;29.70;49.30;;;;;;6229937;28;20050;-80
2023/10/08 13:22:00;;;;;;;8.55;2.95;;;29.70;49.60;;;;;;6229412;28;20046;-80
2023/10/08 13:25:04;;;;;;;6.57;2.67;;;29.60;49.50;;;;;;6227997;28;20054;-80
2023/10/08 13:28:07;;;;;;;5.25;2.58;;;29.60;49.30;;;;;;6219769;28;20629;-80
2023/10/08 13:31:10;;;;;;;6.15;2.28;;;29.50;49.60;;;;;;6227001;28;20053;-78
2023/10/08 13:34:12;;;;;;;3.92;2.13;;;29.40;49.50;;;;;;6227138;28;20057;-80
2023/10/08 13:37:15;;;;;;;8.18;2.38;;;29.30;49.50;;;;;;6231703;28;20042;-81
2023/10/08 13:40:17;;;;;;;4.68;2.15;;;29.20;49.70;;;;;;6231575;28;20518;-82
2023/10/08 13:43:18;;;;;;;4.63;2.50;;;29.30;49.70;;;;;;6233473;28;20125;-79
2023/10/08 13:46:23;;;;;;;6.30;3.40;;;29.30;49.70;;;;;;6230687;28;20061;-80
2023/10/08 13:49:26;;;;;;;4.45;2.42;;;29.40;49.60;;;;;;6230539;28;20042;-81
2023/10/08 13:52:29;;;;;;;5.55;2.70;;;29.40;49.60;;;;;;6230180;28;20052;-80
2023/10/08 13:55:30;;;;;;;5.63;2.70;;;29.50;49.80;;;;;;6231399;28;20041;-80
2023/10/08 13:58:35;;;;;;;4.40;2.40;;;29.60;49.70;;;;;;6232556;28;20053;-81
2023/10/08 14:01:40;;;;;;;6.22;2.10;;;29.50;49.60;;;;;;6232480;28;20544;-81
2023/10/08 14:04:43;;;;;;;3.90;2.28;;;29.50;49.70;;;;;;6232479;28;20053;-80
2023/10/08 14:07:45;;;;;;;6.78;2.80;;;29.50;49.50;;;;;;6232190;28;20050;-81
2023/10/08 14:10:48;;;;;;;7.38;2.45;;;29.30;49.40;;;;;;6233368;28;20053;-81
2023/10/08 14:13:51;;;;;;;6.68;2.55;;;29.20;49.70;;;;;;6232765;28;20096;-80
2023/10/08 14:16:59;;;;;;;3.95;2.15;;;29.20;49.90;;;;;;6232728;28;20049;-81
2023/10/08 14:20:07;;;;;;;2.30;1.88;;;29.30;49.80;;;;;;6233377;28;20388;-80
2023/10/08 14:23:09;;;;;;;4.45;2.30;;;29.30;49.50;;;;;;6231987;28;20053;-81
2023/10/08 14:26:11;;;;;;;5.38;2.40;;;29.10;49.60;;;;;;6233436;28;20137;-82
2023/10/08 14:29:15;;;;;;;4.63;2.03;;;29.00;49.70;;;;;;6243322;28;20042;-80
2023/10/08 14:32:18;;;;;;;6.40;3.28;;;29.00;50.40;;;;;;6239517;28;20056;-80
2023/10/08 14:45:19;;;;;;;5.55;2.47;;;29.00;50.00;;;;;;6237239;28;20486;-80
2023/10/08 14:48:22;;;;;;;9.27;2.58;;;28.80;50.00;;;;;;6235197;28;20045;-80
2023/10/08 14:51:24;;;;;;;6.05;2.17;;;28.60;50.30;;;;;;6238419;28;20094;-80
2023/10/08 14:54:26;;;;;;;8.05;2.35;;;28.50;50.60;;;;;;6239112;28;20054;-82
2023/10/08 14:57:29;;;;;;;5.35;2.45;;;28.50;50.50;;;;;;6240453;28;20053;-81
2023/10/08 15:00:31;;;;;;;6.25;2.75;;;28.30;50.40;;;;;;6233757;28;20044;-82
2023/10/08 15:03:36;;;;;;;5.93;2.45;;;28.10;50.60;;;;;;6235176;28;20060;-82
2023/10/08 15:06:38;;;;;;;3.20;2.03;;;27.80;51.10;;;;;;6234423;28;20074;-83
2023/10/08 15:09:41;;;;;;;6.82;3.53;;;27.50;51.40;;;;;;6239091;28;20046;-82
2023/10/08 15:12:43;;;;;;;7.25;2.28;;;27.20;51.60;;;;;;6239058;28;20388;-82
2023/10/08 15:15:44;;;;;;;4.38;2.42;;;26.90;52.00;;;;;;6238168;28;20070;-83
2023/10/08 15:18:48;;;;;;;7.03;3.80;;;26.50;52.30;;;;;;6237930;28;20050;-83
2023/10/08 15:21:51;;;;;;;6.97;2.50;;;26.20;52.60;;;;;;6239276;28;20088;-80
2023/10/08 15:24:52;;;;;;;6.00;3.28;;;25.90;53.00;;;;;;6237227;28;20479;-82
2023/10/08 15:27:54;;;;;;;5.50;2.85;;;25.70;53.30;;;;;;6236889;28;20403;-85
2023/10/08 15:30:56;;;;;;;4.80;2.58;;;25.40;53.70;;;;;;6235603;28;20042;-81
2023/10/08 15:33:59;;;;;;;7.28;2.65;;;25.20;54.00;;;;;;6241098;28;20046;-82
2023/10/08 15:37:01;;;;;;;10.35;3.30;;;25.10;54.40;;;;;;6239100;28;20046;-82
2023/10/08 15:40:06;;;;;;;7.43;2.50;;;24.90;54.50;;;;;;6239437;28;20122;-82
2023/10/08 15:43:07;;;;;;;9.32;3.40;;;24.70;54.70;;;;;;6240336;28;20046;-82
2023/10/08 15:46:09;;;;;;;6.28;2.83;;;24.60;55.10;;;;;;6239398;28;20133;-82
2023/10/08 15:49:12;;;;;;;3.42;1.67;;;24.50;55.50;;;;;;6229586;28;20046;-83
2023/10/08 15:52:16;;;;;;;7.20;3.78;;;24.30;55.60;;;;;;6238870;28;20048;-80
2023/10/08 15:55:21;;;;;;;5.60;2.47;;;24.20;56.10;;;;;;6239237;28;20053;-81
2023/10/08 15:58:23;;;;;;;5.22;3.38;;;24.10;56.60;;;;;;6241483;28;20081;-82
2023/10/08 16:01:26;;;;;;;5.50;2.75;;;23.90;57.00;;;;;;6249572;28;20049;-82
2023/10/08 16:04:29;;;;;;;4.47;2.47;;;23.80;57.30;;;;;;6241336;28;20053;-81
2023/10/08 16:07:30;;;;;;;4.13;2.85;;;23.70;57.40;;;;;;6242118;28;20046;-82
2023/10/08 16:10:32;;;;;;;10.70;3.83;;;23.60;57.90;;;;;;6244371;28;20045;-80
2023/10/08 16:13:34;;;;;;;7.65;1.73;;;23.50;58.10;;;;;;6240189;28;20056;-80
2023/10/08 16:16:36;;;;;;;7.60;2.25;;;23.40;58.10;;;;;;6240903;28;20082;-80
2023/10/08 16:19:40;;;;;;;5.80;2.13;;;23.20;58.50;;;;;;6238640;28;20038;-81